createdAt,value
2023-01-08T00:01:08.025Z,145.73
2023-01-08T00:03:35.704Z,68.28
2023-01-08T00:06:04.254Z,59.35
2023-01-08T00:08:31.815Z,72.88
2023-01-08T00:10:58.731Z,100.47
2023-01-08T00:13:25.730Z,96.43
2023-01-08T00:15:52.880Z,69.32
2023-01-08T00:18:19.782Z,37.90
2023-01-08T00:20:48.506Z,44.13
2023-01-08T00:23:18.064Z,42.50
2023-01-08T00:25:45.114Z,72.43
2023-01-08T00:28:11.747Z,77.18
2023-01-08T00:30:38.467Z,72.60
2023-01-08T00:33:05.144Z,84.10
2023-01-08T00:35:31.963Z,70.97
2023-01-08T00:37:58.631Z,87.32
2023-01-08T00:40:25.306Z,60.15
2023-01-08T00:42:52.067Z,138.18
2023-01-08T00:45:19.081Z,90.15
2023-01-08T00:47:45.717Z,124.87
2023-01-08T00:50:12.480Z,43.88
2023-01-08T00:52:39.192Z,58.33
2023-01-08T00:55:06.513Z,46.92
2023-01-08T00:57:37.557Z,77.65
2023-01-08T01:00:06.665Z,61.30
2023-01-08T01:02:35.375Z,87.28
2023-01-08T01:05:02.235Z,114.05
2023-01-08T01:07:28.934Z,67.30
2023-01-08T01:09:55.533Z,44.80
2023-01-08T01:12:22.279Z,58.13
2023-01-08T01:14:48.865Z,66.35
2023-01-08T01:17:15.537Z,59.63
2023-01-08T01:19:42.561Z,44.70
2023-01-08T01:22:09.159Z,62.50
2023-01-08T01:24:36.229Z,48.55
2023-01-08T01:27:02.832Z,73.88
2023-01-08T01:29:29.468Z,35.40
2023-01-08T01:31:56.116Z,31.80
2023-01-08T01:34:22.759Z,48.22
2023-01-08T01:36:49.461Z,84.93
2023-01-08T01:39:16.202Z,29.88
2023-01-08T01:41:45.150Z,32.67
2023-01-08T01:44:33.578Z,26.98
2023-01-08T01:47:03.350Z,28.67
2023-01-08T01:49:30.606Z,33.07
2023-01-08T01:52:02.389Z,28.15
2023-01-08T01:54:31.650Z,28.45
2023-01-08T01:57:00.835Z,32.80
2023-01-08T01:59:27.771Z,28.38
2023-01-08T02:01:56.329Z,28.08
2023-01-08T02:04:23.158Z,57.22
2023-01-08T02:07:08.436Z,28.00
2023-01-08T02:10:05.822Z,31.52
2023-01-08T02:12:50.119Z,29.08
2023-01-08T02:15:27.618Z,23.58
2023-01-08T02:18:18.218Z,27.67
2023-01-08T02:20:51.002Z,25.98
2023-01-08T02:23:27.401Z,27.50
2023-01-08T02:26:06.493Z,25.52
2023-01-08T02:28:39.960Z,27.47
2023-01-08T02:31:07.464Z,26.80
2023-01-08T02:33:34.672Z,30.13
2023-01-08T02:36:13.330Z,26.50
2023-01-08T02:38:50.825Z,26.95
2023-01-08T02:41:19.713Z,28.50
2023-01-08T02:43:50.112Z,24.95
2023-01-08T02:46:34.849Z,35.55
2023-01-08T02:49:07.822Z,36.08
2023-01-08T02:51:41.616Z,33.03
2023-01-08T02:54:14.696Z,27.48
2023-01-08T02:56:49.153Z,27.35
2023-01-08T02:59:18.828Z,27.17
2023-01-08T03:01:46.626Z,25.20
2023-01-08T03:04:21.732Z,25.25
2023-01-08T03:06:49.435Z,29.35
2023-01-08T03:09:17.254Z,26.98
2023-01-08T03:12:07.209Z,25.92
2023-01-08T03:14:43.616Z,25.10
2023-01-08T03:17:48.385Z,26.00
2023-01-08T03:20:18.833Z,25.30
2023-01-08T03:22:49.801Z,25.52
2023-01-08T03:25:19.277Z,25.50
2023-01-08T03:27:50.542Z,24.75
2023-01-08T03:30:18.893Z,25.80
2023-01-08T03:32:48.014Z,25.08
2023-01-08T03:35:19.959Z,24.83
2023-01-08T03:37:52.099Z,25.33
2023-01-08T03:40:36.666Z,24.38
2023-01-08T03:43:03.535Z,28.90
2023-01-08T03:45:32.175Z,27.98
2023-01-08T03:48:00.567Z,26.92
2023-01-08T03:50:30.459Z,25.17
2023-01-08T03:52:58.740Z,38.75
2023-01-08T03:55:27.237Z,25.25
2023-01-08T03:57:53.845Z,26.45
2023-01-08T04:00:20.631Z,25.58
2023-01-08T04:02:47.329Z,25.52
2023-01-08T04:05:14.035Z,23.92
2023-01-08T04:07:40.789Z,23.83
2023-01-08T04:10:07.675Z,27.17
2023-01-08T04:12:34.290Z,25.48
2023-01-08T04:15:01.010Z,25.30
2023-01-08T04:17:27.706Z,26.98
2023-01-08T04:19:54.390Z,25.00
2023-01-08T04:22:21.096Z,23.52
2023-01-08T04:24:47.784Z,25.15
2023-01-08T04:27:14.446Z,24.70
2023-01-08T04:29:41.033Z,24.83
2023-01-08T04:32:07.726Z,26.17
2023-01-08T04:34:34.394Z,23.27
2023-01-08T04:37:01.891Z,25.70
2023-01-08T04:39:28.911Z,25.10
2023-01-08T04:41:55.553Z,25.60
2023-01-08T04:44:22.328Z,23.65
2023-01-08T04:46:48.927Z,25.48
2023-01-08T04:49:15.647Z,25.35
2023-01-08T04:51:42.324Z,24.17
2023-01-08T04:54:08.981Z,24.50
2023-01-08T04:56:35.734Z,27.67
2023-01-08T04:59:02.505Z,23.97
2023-01-08T05:01:29.680Z,23.05
2023-01-08T05:04:02.016Z,24.35
2023-01-08T05:06:30.086Z,25.77
2023-01-08T05:08:57.566Z,25.45
2023-01-08T05:11:25.222Z,24.17
2023-01-08T05:13:52.859Z,23.52
2023-01-08T05:16:20.012Z,23.30
2023-01-08T05:18:46.689Z,24.45
2023-01-08T05:21:13.871Z,28.08
2023-01-08T05:23:43.979Z,33.45
2023-01-08T05:26:10.616Z,31.20
2023-01-08T05:28:37.242Z,27.15
2023-01-08T05:31:04.057Z,27.85
2023-01-08T05:33:31.443Z,27.75
2023-01-08T05:35:58.052Z,26.58
2023-01-08T05:38:24.843Z,27.88
2023-01-08T05:40:54.702Z,25.48
2023-01-08T05:43:21.493Z,28.38
2023-01-08T05:45:48.299Z,25.33
2023-01-08T05:48:14.935Z,26.13
2023-01-08T05:50:41.643Z,25.85
2023-01-08T05:53:09.696Z,25.65
2023-01-08T05:55:36.933Z,23.73
2023-01-08T05:58:05.966Z,27.40
2023-01-08T06:00:33.829Z,23.93
2023-01-08T06:03:00.604Z,29.20
2023-01-08T06:05:27.276Z,27.15
2023-01-08T06:07:53.938Z,29.77
2023-01-08T06:10:20.577Z,28.27
2023-01-08T06:12:47.548Z,28.57
2023-01-08T06:15:14.162Z,26.52
2023-01-08T06:17:41.160Z,19.55
2023-01-08T06:20:08.674Z,22.88
2023-01-08T06:22:35.623Z,24.40
2023-01-08T06:25:04.902Z,25.30
2023-01-08T06:27:31.645Z,21.27
2023-01-08T06:29:58.336Z,23.90
2023-01-08T06:32:24.965Z,25.15
2023-01-08T06:34:51.630Z,22.17
2023-01-08T06:37:18.350Z,23.02
2023-01-08T06:39:44.945Z,27.17
2023-01-08T06:42:11.647Z,19.65
2023-01-08T06:44:38.325Z,23.98
2023-01-08T06:47:05.076Z,20.92
2023-01-08T06:49:31.649Z,19.90
2023-01-08T06:51:58.316Z,21.73
2023-01-08T06:54:25.009Z,19.70
2023-01-08T06:56:53.946Z,17.98
2023-01-08T06:59:21.464Z,19.88
2023-01-08T07:01:48.294Z,17.20
2023-01-08T07:04:15.310Z,16.33
2023-01-08T07:06:41.895Z,18.45
2023-01-08T07:09:12.744Z,19.10
2023-01-08T07:11:40.239Z,17.27
2023-01-08T07:14:06.959Z,18.73
2023-01-08T07:16:33.704Z,18.63
2023-01-08T07:19:00.504Z,22.58
2023-01-08T07:21:27.206Z,20.90
2023-01-08T07:23:53.999Z,19.95
2023-01-08T07:26:20.608Z,18.53
2023-01-08T07:28:47.205Z,20.63
2023-01-08T07:31:13.900Z,17.90
2023-01-08T07:33:40.638Z,13.27
2023-01-08T07:36:07.860Z,14.98
2023-01-08T07:38:34.677Z,19.47
2023-01-08T07:41:01.310Z,19.75
2023-01-08T07:43:29.957Z,26.20
2023-01-08T07:45:57.630Z,27.98
2023-01-08T07:48:24.422Z,27.88
2023-01-08T07:50:51.368Z,27.53
2023-01-08T07:53:18.160Z,44.25
2023-01-08T07:55:44.874Z,45.20
2023-01-08T07:58:14.475Z,37.67
2023-01-08T08:00:41.708Z,25.02
2023-01-08T08:03:12.189Z,25.07
2023-01-08T08:05:39.430Z,27.35
2023-01-08T08:08:10.965Z,24.05
2023-01-08T08:10:38.745Z,26.70
2023-01-08T08:13:05.895Z,24.13
2023-01-08T08:15:33.213Z,18.13
2023-01-08T08:17:59.930Z,19.08
2023-01-08T08:20:27.276Z,16.27
2023-01-08T08:23:01.774Z,14.80
2023-01-08T08:25:28.720Z,16.40
2023-01-08T08:27:59.281Z,15.17
2023-01-08T08:30:27.655Z,12.43
2023-01-08T08:32:54.827Z,13.05
2023-01-08T08:35:22.022Z,12.82
2023-01-08T08:37:48.732Z,13.60
2023-01-08T08:40:15.549Z,11.93
2023-01-08T08:42:42.209Z,11.20
2023-01-08T08:45:09.310Z,10.07
2023-01-08T08:47:36.054Z,13.05
2023-01-08T08:50:03.327Z,11.18
2023-01-08T08:52:31.379Z,10.87
2023-01-08T08:54:58.191Z,10.48
2023-01-08T08:57:26.015Z,9.85
2023-01-08T08:59:52.836Z,8.02
2023-01-08T09:02:20.175Z,8.55
2023-01-08T09:04:46.972Z,9.77
2023-01-08T09:07:13.634Z,9.23
2023-01-08T09:09:40.308Z,9.48
2023-01-08T09:12:07.752Z,14.48
2023-01-08T09:14:34.476Z,10.55
2023-01-08T09:17:01.198Z,9.70
2023-01-08T09:19:27.845Z,7.80
2023-01-08T09:21:54.524Z,8.38
2023-01-08T09:24:21.214Z,7.00
2023-01-08T09:26:47.821Z,7.05
2023-01-08T09:29:14.500Z,6.40
2023-01-08T09:31:41.199Z,5.13
2023-01-08T09:34:07.860Z,7.13
2023-01-08T09:36:34.584Z,6.45
2023-01-08T09:39:01.514Z,8.55
2023-01-08T09:41:31.290Z,6.43
2023-01-08T09:44:00.242Z,6.03
2023-01-08T09:46:28.740Z,6.30
2023-01-08T09:48:59.317Z,7.45
2023-01-08T09:51:35.337Z,8.55
2023-01-08T09:54:03.038Z,15.77
2023-01-08T09:56:30.399Z,11.27
2023-01-08T09:59:01.223Z,9.93
2023-01-08T10:01:39.274Z,13.13
2023-01-08T10:04:18.069Z,14.45
2023-01-08T10:06:55.315Z,13.77
2023-01-08T10:09:27.101Z,25.20
2023-01-08T10:11:56.575Z,9.77
2023-01-08T10:14:27.005Z,11.27
2023-01-08T10:17:03.413Z,18.27
2023-01-08T10:19:30.071Z,14.80
2023-01-08T10:21:57.780Z,9.35
2023-01-08T10:24:35.219Z,7.18
2023-01-08T10:27:28.297Z,12.52
2023-01-08T10:30:05.383Z,5.30
2023-01-08T10:32:36.685Z,8.47
2023-01-08T10:35:06.636Z,6.10
2023-01-08T10:37:39.456Z,5.68
2023-01-08T10:40:29.590Z,5.80
2023-01-08T10:42:58.593Z,12.35
2023-01-08T10:45:27.978Z,11.43
2023-01-08T10:48:00.640Z,10.38
2023-01-08T10:50:32.344Z,11.30
2023-01-08T10:53:05.357Z,8.93
2023-01-08T10:55:37.368Z,6.95
2023-01-08T10:58:10.051Z,8.27
2023-01-08T11:00:37.573Z,6.55
2023-01-08T11:03:07.102Z,6.55
2023-01-08T11:05:36.444Z,6.00
2023-01-08T11:08:06.830Z,5.85
2023-01-08T11:10:36.504Z,5.97
2023-01-08T11:13:07.122Z,5.03
2023-01-08T11:15:39.020Z,4.70
2023-01-08T11:18:21.555Z,5.68
2023-01-08T11:20:49.733Z,5.95
2023-01-08T11:23:23.296Z,4.20
2023-01-08T11:26:06.328Z,4.45
2023-01-08T11:28:59.403Z,6.03
2023-01-08T11:31:41.566Z,7.53
2023-01-08T11:34:18.343Z,6.55
2023-01-08T11:36:53.014Z,6.97
2023-01-08T11:39:19.800Z,6.75
2023-01-08T11:42:08.436Z,6.43
2023-01-08T11:45:02.690Z,5.82
2023-01-08T11:47:29.295Z,7.20
2023-01-08T11:50:21.825Z,5.13
2023-01-08T11:53:03.577Z,7.90
2023-01-08T11:55:42.907Z,10.38
2023-01-08T11:58:28.294Z,14.00
2023-01-08T12:00:58.861Z,8.82
2023-01-08T12:03:34.384Z,7.03
2023-01-08T12:06:36.865Z,6.53
2023-01-08T12:09:28.361Z,6.03
2023-01-08T12:12:02.797Z,23.13
2023-01-08T12:14:38.128Z,24.85
2023-01-08T12:17:39.047Z,7.17
2023-01-08T12:20:26.334Z,18.48
2023-01-08T12:23:07.006Z,9.93
2023-01-08T12:26:12.064Z,8.80
2023-01-08T12:28:49.471Z,16.13
2023-01-08T12:31:28.627Z,5.27
2023-01-08T12:34:05.650Z,6.07
2023-01-08T12:36:54.828Z,7.60
2023-01-08T12:39:29.869Z,6.07
2023-01-08T12:42:11.218Z,4.95
2023-01-08T12:44:38.211Z,4.37
2023-01-08T12:47:07.734Z,5.88
2023-01-08T12:49:51.675Z,5.05
2023-01-08T12:52:25.109Z,4.93
2023-01-08T12:55:38.086Z,5.43
2023-01-08T12:58:25.809Z,5.30
2023-01-08T13:01:21.340Z,5.45
2023-01-08T13:03:49.249Z,4.72
2023-01-08T13:06:18.458Z,4.55
2023-01-08T13:08:49.712Z,4.05
2023-01-08T13:11:38.360Z,4.80
2023-01-08T13:14:10.827Z,5.03
2023-01-08T13:16:40.175Z,4.43
2023-01-08T13:19:21.774Z,5.28
2023-01-08T13:21:57.577Z,4.60
2023-01-08T13:24:30.014Z,5.27
2023-01-08T13:26:57.518Z,4.50
2023-01-08T13:29:44.458Z,5.45
2023-01-08T13:32:45.778Z,4.43
2023-01-08T13:35:15.164Z,5.78
2023-01-08T13:37:47.610Z,5.23
2023-01-08T13:40:52.371Z,6.32
2023-01-08T13:43:24.317Z,5.72
2023-01-08T13:45:59.777Z,6.85
2023-01-08T13:48:33.993Z,8.98
2023-01-08T13:51:00.861Z,10.07
2023-01-08T13:53:27.599Z,9.48
2023-01-08T13:56:01.148Z,7.90
2023-01-08T13:58:33.362Z,6.65
2023-01-08T14:01:01.744Z,8.27
2023-01-08T14:03:29.984Z,5.40
2023-01-08T14:06:20.318Z,6.35
2023-01-08T14:08:58.287Z,6.07
2023-01-08T14:11:43.789Z,5.28
2023-01-08T14:14:16.049Z,6.47
2023-01-08T14:16:43.774Z,6.43
2023-01-08T14:19:20.158Z,6.03
2023-01-08T14:21:51.646Z,7.75
2023-01-08T14:24:20.054Z,6.68
2023-01-08T14:26:55.203Z,6.47
2023-01-08T14:29:25.219Z,5.97
2023-01-08T14:31:55.020Z,5.03
2023-01-08T14:34:25.004Z,4.60
2023-01-08T14:36:54.000Z,5.85
2023-01-08T14:39:33.419Z,4.13
2023-01-08T14:42:42.785Z,4.40
2023-01-08T14:45:15.575Z,5.07
2023-01-08T14:47:49.334Z,6.25
2023-01-08T14:50:29.717Z,7.60
2023-01-08T14:53:08.043Z,10.75
2023-01-08T14:55:41.802Z,8.80
2023-01-08T14:58:18.267Z,7.97
2023-01-08T15:00:51.889Z,8.00
2023-01-08T15:03:39.441Z,9.00
2023-01-08T15:06:15.926Z,8.30
2023-01-08T15:08:44.685Z,8.73
2023-01-08T15:11:24.822Z,8.70
2023-01-08T15:13:53.251Z,9.48
2023-01-08T15:16:29.536Z,9.65
2023-01-08T15:19:11.104Z,10.02
2023-01-08T15:21:38.667Z,9.67
2023-01-08T15:24:07.267Z,10.90
2023-01-08T15:26:34.199Z,10.07
2023-01-08T15:29:05.112Z,9.70
2023-01-08T15:31:45.071Z,14.13
2023-01-08T15:34:11.860Z,10.70
2023-01-08T15:36:38.544Z,10.38
2023-01-08T15:39:06.123Z,12.45
2023-01-08T15:41:56.019Z,11.00
2023-01-08T15:44:23.728Z,13.05
2023-01-08T15:46:52.475Z,11.90
2023-01-08T15:49:19.157Z,12.85
2023-01-08T15:51:49.557Z,15.00
2023-01-08T15:54:16.750Z,16.63
2023-01-08T15:56:43.567Z,13.52
2023-01-08T15:59:11.360Z,10.40
2023-01-08T16:01:38.625Z,11.90
2023-01-08T16:04:05.346Z,11.40
2023-01-08T16:06:32.264Z,10.93
2023-01-08T16:09:00.480Z,12.25
2023-01-08T16:11:27.845Z,11.17
2023-01-08T16:13:54.988Z,12.82
2023-01-08T16:16:22.240Z,12.52
2023-01-08T16:18:49.344Z,12.73
2023-01-08T16:21:16.026Z,13.63
2023-01-08T16:23:42.721Z,15.47
2023-01-08T16:26:14.583Z,16.38
2023-01-08T16:28:41.796Z,16.60
2023-01-08T16:31:09.202Z,14.13
2023-01-08T16:33:35.998Z,15.27
2023-01-08T16:36:08.147Z,14.63
2023-01-08T16:38:36.139Z,13.13
2023-01-08T16:41:03.036Z,14.70
2023-01-08T16:43:31.484Z,16.10
2023-01-08T16:46:03.185Z,19.45
2023-01-08T16:48:30.701Z,22.77
2023-01-08T16:51:04.999Z,25.17
2023-01-08T16:53:32.100Z,25.98
2023-01-08T16:55:59.971Z,24.40
2023-01-08T16:58:26.662Z,40.35
2023-01-08T17:00:53.360Z,28.57
2023-01-08T17:03:20.743Z,21.95
2023-01-08T17:05:47.546Z,20.65
2023-01-08T17:08:16.292Z,22.50
2023-01-08T17:10:43.744Z,22.55
2023-01-08T17:13:10.367Z,23.37
2023-01-08T17:15:38.046Z,21.63
2023-01-08T17:18:04.747Z,22.50
2023-01-08T17:20:32.193Z,21.63
2023-01-08T17:23:01.371Z,23.15
2023-01-08T17:25:28.192Z,25.27
2023-01-08T17:27:54.843Z,23.80
2023-01-08T17:30:21.695Z,26.98
2023-01-08T17:32:48.467Z,27.58
2023-01-08T17:35:15.182Z,24.50
2023-01-08T17:37:41.918Z,17.90
2023-01-08T17:40:09.658Z,22.48
2023-01-08T17:42:36.254Z,19.23
2023-01-08T17:45:05.649Z,20.70
2023-01-08T17:47:32.445Z,20.25
2023-01-08T17:49:59.163Z,19.90
2023-01-08T17:52:26.002Z,17.85
2023-01-08T17:54:53.516Z,17.17
2023-01-08T17:57:21.100Z,16.60
2023-01-08T17:59:48.660Z,17.33
2023-01-08T18:02:16.727Z,23.47
2023-01-08T18:04:45.391Z,20.80
2023-01-08T18:07:12.347Z,17.80
2023-01-08T18:09:39.030Z,17.55
2023-01-08T18:12:05.917Z,16.00
2023-01-08T18:14:34.946Z,14.63
2023-01-08T18:17:01.953Z,18.45
2023-01-08T18:19:28.594Z,17.75
2023-01-08T18:21:55.276Z,16.50
2023-01-08T18:24:21.950Z,19.75
2023-01-08T18:26:49.513Z,15.93
2023-01-08T18:29:16.325Z,17.48
2023-01-08T18:31:45.696Z,16.73
2023-01-08T18:34:14.998Z,14.65
2023-01-08T18:36:41.975Z,15.18
2023-01-08T18:39:08.636Z,13.73
2023-01-08T18:41:53.695Z,16.30
2023-01-08T18:44:20.461Z,25.95
2023-01-08T18:46:48.305Z,73.13
2023-01-08T18:49:15.752Z,42.15
2023-01-08T18:51:42.845Z,36.03
2023-01-08T18:54:11.258Z,30.85
2023-01-08T18:56:38.292Z,35.17
2023-01-08T18:59:06.882Z,29.90
2023-01-08T19:01:34.999Z,28.30
2023-01-08T19:04:02.168Z,29.00
2023-01-08T19:06:28.910Z,32.00
2023-01-08T19:08:58.121Z,39.65
2023-01-08T19:11:25.282Z,32.63
2023-01-08T19:13:56.872Z,32.25
2023-01-08T19:16:23.977Z,36.43
2023-01-08T19:18:50.911Z,26.45
2023-01-08T19:21:19.338Z,27.75
2023-01-08T19:23:48.978Z,24.27
2023-01-08T19:26:16.591Z,23.55
2023-01-08T19:28:43.673Z,24.83
2023-01-08T19:31:15.396Z,31.77
2023-01-08T19:33:42.481Z,25.75
2023-01-08T19:36:15.712Z,22.48
2023-01-08T19:38:43.968Z,22.95
2023-01-08T19:41:30.661Z,20.43
2023-01-08T19:43:58.291Z,16.75
2023-01-08T19:46:25.982Z,14.57
2023-01-08T19:48:52.935Z,18.55
2023-01-08T19:51:19.912Z,25.23
2023-01-08T19:53:46.611Z,21.50
2023-01-08T19:56:14.949Z,21.02
2023-01-08T19:58:42.145Z,19.42
2023-01-08T20:01:17.057Z,20.83
2023-01-08T20:03:44.514Z,20.58
2023-01-08T20:06:19.582Z,16.83
2023-01-08T20:08:50.667Z,18.70
2023-01-08T20:11:17.756Z,29.15
2023-01-08T20:13:44.579Z,55.08
2023-01-08T20:16:14.073Z,39.38
2023-01-08T20:18:40.867Z,29.60
2023-01-08T20:21:16.780Z,36.28
2023-01-08T20:23:45.020Z,35.20
2023-01-08T20:26:17.982Z,35.55
2023-01-08T20:28:46.197Z,32.83
2023-01-08T20:31:21.354Z,34.77
2023-01-08T20:33:49.168Z,39.25
2023-01-08T20:36:21.173Z,39.55
2023-01-08T20:38:55.024Z,37.70
2023-01-08T20:41:22.036Z,24.13
2023-01-08T20:43:49.167Z,15.87
2023-01-08T20:46:16.456Z,14.90
2023-01-08T20:48:47.815Z,15.98
2023-01-08T20:51:15.865Z,15.10
2023-01-08T20:53:42.608Z,15.65
2023-01-08T20:56:14.738Z,16.17
2023-01-08T20:58:43.747Z,20.33
2023-01-08T21:01:22.803Z,19.10
2023-01-08T21:03:53.420Z,16.02
2023-01-08T21:06:21.949Z,14.85
2023-01-08T21:08:50.449Z,15.30
2023-01-08T21:11:18.894Z,18.33
2023-01-08T21:13:46.092Z,18.38
2023-01-08T21:16:16.194Z,18.05
2023-01-08T21:18:49.276Z,19.05
2023-01-08T21:21:19.114Z,19.17
2023-01-08T21:23:47.432Z,20.00
2023-01-08T21:26:15.752Z,21.50
2023-01-08T21:28:42.963Z,18.85
2023-01-08T21:31:13.269Z,20.65
2023-01-08T21:33:40.723Z,23.30
2023-01-08T21:36:10.067Z,23.50
2023-01-08T21:38:37.498Z,25.77
2023-01-08T21:41:06.852Z,22.33
2023-01-08T21:43:52.462Z,24.42
2023-01-08T21:46:20.138Z,20.90
2023-01-08T21:48:51.569Z,21.27
2023-01-08T21:51:37.008Z,18.67
2023-01-08T21:54:04.431Z,19.17
2023-01-08T21:56:31.381Z,20.17
2023-01-08T21:58:58.078Z,19.50
2023-01-08T22:01:24.819Z,19.40
2023-01-08T22:03:51.654Z,22.60
2023-01-08T22:06:18.308Z,23.88
2023-01-08T22:08:45.295Z,20.83
2023-01-08T22:11:11.955Z,18.00
2023-01-08T22:13:39.339Z,17.55
2023-01-08T22:16:09.212Z,15.98
2023-01-08T22:18:37.209Z,16.75
2023-01-08T22:21:14.506Z,14.20
2023-01-08T22:23:41.226Z,15.87
2023-01-08T22:26:10.633Z,17.52
2023-01-08T22:28:39.273Z,16.63
2023-01-08T22:31:12.419Z,17.73
2023-01-08T22:33:39.816Z,18.15
2023-01-08T22:36:09.274Z,13.93
2023-01-08T22:38:36.948Z,15.57
2023-01-08T22:41:04.160Z,16.25
2023-01-08T22:43:30.966Z,16.33
2023-01-08T22:45:59.799Z,15.45
2023-01-08T22:48:27.256Z,20.77
2023-01-08T22:50:53.937Z,13.50
2023-01-08T22:53:20.757Z,14.43
2023-01-08T22:55:48.418Z,12.40
2023-01-08T22:58:16.336Z,11.65
2023-01-08T23:00:43.536Z,19.77
2023-01-08T23:03:10.550Z,12.95
2023-01-08T23:05:37.315Z,16.92
2023-01-08T23:08:04.211Z,17.38
2023-01-08T23:10:31.603Z,13.50
2023-01-08T23:12:58.233Z,12.20
2023-01-08T23:15:25.192Z,11.73
2023-01-08T23:17:52.853Z,12.88
2023-01-08T23:20:21.206Z,13.35
2023-01-08T23:22:48.878Z,10.45
2023-01-08T23:25:16.366Z,9.57
2023-01-08T23:27:44.827Z,10.65
2023-01-08T23:30:12.166Z,12.32
2023-01-08T23:32:39.837Z,10.90
2023-01-08T23:35:06.898Z,17.20
2023-01-08T23:37:34.154Z,10.67
2023-01-08T23:40:00.816Z,10.20
2023-01-08T23:42:29.436Z,9.15
2023-01-08T23:44:56.558Z,9.98
2023-01-08T23:47:23.370Z,12.88
2023-01-08T23:49:50.053Z,10.43
2023-01-08T23:52:16.728Z,10.50
2023-01-08T23:54:43.358Z,10.50
2023-01-08T23:57:10.014Z,10.13
2023-01-08T23:59:36.644Z,10.77
